Time;durP1;ratioP1;P1;durP2;ratioP2;P2;SDS_P1;SDS_P2;PMS_P1;PMS_P2;Temp;Humidity;BMP_temperature;BMP_pressure;BME280_temperature;BME280_humidity;BME280_pressure;Samples;Min_cycle;Max_cycle;Signal;HPM_P1;HPM_P2
2021/12/21 00:01:00;;;;;;;0.30;0.30;;;;;;;-1.18;100.00;101120.16;5022270;23;20232;-78
2021/12/21 00:03:28;;;;;;;0.20;0.20;;;;;;;-1.21;100.00;101118.25;4989906;28;20236;-79
2021/12/21 00:05:57;;;;;;;0.20;0.20;;;;;;;-1.25;100.00;101126.63;4983374;28;20221;-79
2021/12/21 00:08:25;;;;;;;0.20;0.20;;;;;;;-1.31;100.00;101119.31;5013545;28;20209;-77
2021/12/21 00:11:14;;;;;;;0.20;0.20;;;-0.90;99.90;;;-1.24;100.00;101130.13;4974512;28;20232;-79
2021/12/21 00:16:26;;;;;;;0.30;0.30;;;-1.00;99.90;;;-1.31;100.00;101121.00;4950513;28;20213;-79
2021/12/21 00:23:59;;;;;;;0.20;0.20;;;;;;;-1.48;100.00;101099.13;4982351;28;20675;-77
2021/12/21 00:26:28;;;;;;;0.30;0.30;;;;;;;-1.54;100.00;101092.63;4957726;28;20213;-79
2021/12/21 00:28:58;;;;;;;0.32;0.32;;;-0.90;99.90;;;-1.52;100.00;101101.41;4969222;28;20217;-79
2021/12/21 00:31:31;;;;;;;0.20;0.20;;;-1.20;99.90;;;-1.54;100.00;101103.00;4951488;28;20244;-77
2021/12/21 00:34:01;;;;;;;0.20;0.20;;;-1.20;99.90;;;-1.59;100.00;101105.28;4948516;28;20228;-79
2021/12/21 00:36:30;;;;;;;0.20;0.20;;;-1.20;99.90;;;-1.57;100.00;101111.47;4965330;28;20229;-79
2021/12/21 00:39:06;;;;;;;0.20;0.20;;;-1.30;99.90;;;-1.57;100.00;101107.97;4983667;28;20287;-79
2021/12/21 00:41:35;;;;;;;0.20;0.20;;;0.10;99.90;;;-1.58;100.00;101108.75;4966262;28;20745;-79
2021/12/21 00:44:04;;;;;;;0.30;0.30;;;-1.30;99.90;;;-1.63;100.00;101104.16;4951039;28;20668;-79
2021/12/21 00:46:32;;;;;;;0.20;0.20;;;-1.30;99.90;;;-1.62;100.00;101099.88;4982263;28;20201;-79
2021/12/21 00:49:13;;;;;;;0.30;0.30;;;;;;;-1.65;100.00;101105.75;4956580;28;20701;-79
2021/12/21 00:51:44;;;;;;;0.30;0.30;;;-1.30;99.90;;;-1.65;100.00;101100.56;4982926;28;20233;-79
2021/12/21 00:54:13;;;;;;;0.30;0.30;;;-1.30;99.90;;;-1.65;100.00;101100.56;4984362;28;20208;-79
2021/12/21 00:56:41;;;;;;;0.30;0.30;;;-1.00;99.90;;;-1.69;100.00;101089.88;4950857;28;20224;-79
2021/12/21 00:59:09;;;;;;;0.20;0.20;;;-1.40;99.90;;;-1.70;100.00;101090.69;4982778;28;20214;-79
2021/12/21 01:01:41;;;;;;;0.30;0.30;;;-1.50;99.90;;;-1.72;100.00;101094.88;4963242;28;20233;-79
2021/12/21 01:04:19;;;;;;;0.30;0.30;;;-1.50;99.90;;;-1.72;100.00;101092.28;4981519;28;20227;-79
2021/12/21 01:12:19;;;;;;;0.15;0.15;;;-1.50;99.90;;;-1.74;100.00;101094.75;4997040;28;20229;-79
2021/12/21 01:17:33;;;;;;;0.20;0.20;;;-1.50;99.90;;;-1.76;100.00;101091.16;4973228;28;20228;-79
2021/12/21 01:20:25;;;;;;;0.20;0.20;;;;;;;-1.74;100.00;101086.09;4964280;28;20701;-79
2021/12/21 01:28:29;;;;;;;0.20;0.20;;;-1.50;99.90;;;-1.73;100.00;101077.50;4964527;28;20225;-78
2021/12/21 01:31:22;;;;;;;0.20;0.20;;;-1.50;99.90;;;-1.76;100.00;101079.91;4979132;28;20252;-78
2021/12/21 01:36:41;;;;;;;0.30;0.30;;;;;;;-1.81;100.00;101070.91;4972462;28;20221;-78
2021/12/21 01:49:51;;;;;;;0.30;0.30;;;;;;;-1.88;100.00;101069.59;4975955;28;20209;-79
2021/12/21 01:52:25;;;;;;;0.30;0.30;;;-1.60;99.90;;;-1.89;100.00;101070.38;4948126;28;20225;-79
2021/12/21 01:54:54;;;;;;;0.30;0.30;;;-1.60;99.90;;;-1.84;100.00;101071.59;4932682;28;20213;-77
2021/12/21 01:57:23;;;;;;;0.30;0.30;;;-1.60;99.90;;;-1.85;100.00;101066.31;4963263;28;20237;-78
2021/12/21 01:59:51;;;;;;;0.30;0.30;;;-1.60;99.90;;;-1.87;100.00;101066.19;4933987;28;20201;-79
2021/12/21 02:02:21;;;;;;;0.20;0.20;;;-1.60;99.90;;;-1.94;100.00;101053.63;4970121;28;20239;-79
2021/12/21 02:04:50;;;;;;;0.20;0.20;;;-1.60;99.90;;;-1.90;100.00;101058.22;4982240;28;20213;-79
2021/12/21 02:07:18;;;;;;;0.30;0.30;;;-1.60;99.90;;;-1.93;100.00;101060.59;4984001;28;20209;-79
2021/12/21 02:09:46;;;;;;;0.20;0.20;;;-1.60;99.90;;;-1.92;100.00;101054.63;4979614;28;20216;-79
2021/12/21 02:12:19;;;;;;;0.20;0.20;;;-1.60;99.90;;;-1.98;100.00;101046.44;4981230;28;20258;-79
2021/12/21 02:14:59;;;;;;;0.30;0.30;;;-1.80;99.90;;;-2.00;100.00;101042.81;4987621;28;20202;-78
2021/12/21 02:25:49;;;;;;;0.20;0.20;;;-1.80;99.90;;;-2.09;100.00;101037.00;4995236;28;20205;-79
2021/12/21 02:28:34;;;;;;;0.20;0.20;;;-1.80;99.90;;;-2.11;100.00;101038.59;4968745;28;20216;-79
2021/12/21 02:31:02;;;;;;;0.32;0.32;;;-1.80;99.90;;;-2.11;100.00;101041.19;4984253;28;20228;-79
2021/12/21 02:33:30;;;;;;;0.20;0.20;;;-1.80;99.90;;;-2.12;100.00;101041.97;4981973;28;20236;-79
2021/12/21 02:35:58;;;;;;;0.20;0.20;;;-1.80;99.90;;;-2.20;100.00;101033.69;4977538;28;20216;-79
2021/12/21 02:38:27;;;;;;;0.17;0.17;;;-1.90;99.90;;;-2.19;100.00;101044.94;4966747;28;20230;-77
2021/12/21 02:40:56;;;;;;;0.20;0.20;;;;;;;-2.20;100.00;101038.88;4951218;28;20229;-78
2021/12/21 02:43:24;;;;;;;0.20;0.20;;;-2.00;99.90;;;-2.18;100.00;101049.34;5004361;28;20221;-79
2021/12/21 02:45:52;;;;;;;0.30;0.30;;;;;;;-2.19;100.00;101042.34;4987126;28;20225;-78
2021/12/21 02:48:20;;;;;;;0.20;0.20;;;-1.90;99.90;;;-2.21;100.00;101050.03;4933522;28;20213;-78
2021/12/21 02:50:48;;;;;;;0.30;0.30;;;;;;;-2.24;100.00;101057.59;4968617;28;20621;-78
2021/12/21 02:53:16;;;;;;;0.30;0.30;;;;;;;-2.27;100.00;101054.78;4932896;28;20221;-79
2021/12/21 02:55:45;;;;;;;0.20;0.20;;;;;;;-2.28;100.00;101056.47;4947676;28;20213;-79
2021/12/21 02:58:13;;;;;;;0.30;0.30;;;;;;;-2.27;100.00;101059.97;4944261;28;20229;-78
2021/12/21 03:00:43;;;;;;;0.20;0.20;;;-2.00;99.90;;;-2.32;100.00;101054.47;4965245;28;20245;-79
2021/12/21 03:03:14;;;;;;;0.20;0.20;;;-2.00;99.90;;;-2.32;100.00;101056.16;4955038;28;20209;-77
2021/12/21 03:05:51;;;;;;;0.20;0.20;;;;;;;-2.34;100.00;101057.75;4980114;28;20209;-79
2021/12/21 03:08:37;;;;;;;0.30;0.30;;;-2.00;99.90;;;-2.37;100.00;101053.25;4935418;28;20201;-79
2021/12/21 03:11:19;;;;;;;0.20;0.20;;;-2.00;99.90;;;-2.36;100.00;101051.53;4965929;28;20232;-79
2021/12/21 03:14:03;;;;;;;0.30;0.30;;;-2.00;99.90;;;-2.37;100.00;101055.81;4952073;28;20211;-79
2021/12/21 03:16:34;;;;;;;0.30;0.30;;;-2.10;99.90;;;-2.37;100.00;101060.09;4977693;28;20213;-79
2021/12/21 03:19:09;;;;;;;0.20;0.20;;;-2.10;99.90;;;-2.37;100.00;101054.94;4988677;28;20232;-79
2021/12/21 03:21:38;;;;;;;0.20;0.20;;;-2.10;99.90;;;-2.34;100.00;101062.91;4967356;28;20231;-79
2021/12/21 03:24:07;;;;;;;0.20;0.20;;;-2.10;99.90;;;-2.38;100.00;101056.63;4965769;28;20201;-79
2021/12/21 03:26:36;;;;;;;0.20;0.20;;;-2.00;99.90;;;-2.38;100.00;101053.13;4949962;28;20216;-79
2021/12/21 03:29:06;;;;;;;0.20;0.20;;;-2.00;99.90;;;-2.40;100.00;101049.53;4980106;28;20217;-79
2021/12/21 03:31:35;;;;;;;0.30;0.30;;;-2.10;99.90;;;-2.43;100.00;101054.50;4963281;28;20233;-79
2021/12/21 03:34:04;;;;;;;0.20;0.20;;;;;;;-2.45;100.00;101040.53;4966111;28;20209;-79
2021/12/21 03:36:33;;;;;;;0.30;0.30;;;-2.10;99.90;;;-2.49;100.00;101029.06;4947771;28;20228;-77
2021/12/21 03:41:29;;;;;;;0.20;0.20;;;-2.20;99.90;;;-2.55;100.00;101023.47;4944871;28;20237;-79
2021/12/21 03:44:00;;;;;;;0.30;0.30;;;-2.30;99.90;;;-2.56;100.00;101021.66;4958343;28;20232;-79
2021/12/21 03:46:31;;;;;;;0.30;0.30;;;-2.20;99.90;;;-2.58;100.00;101020.66;4946817;28;20210;-79
2021/12/21 03:49:09;;;;;;;0.30;0.30;;;-2.20;99.90;;;-2.61;100.00;101016.13;4978891;28;20224;-78
2021/12/21 03:51:37;;;;;;;0.30;0.30;;;-2.30;99.90;;;-2.61;100.00;101025.59;4964051;28;20233;-80
2021/12/21 03:54:06;;;;;;;0.30;0.30;;;;;;;-2.62;100.00;101027.28;4984167;28;20209;-79
2021/12/21 03:59:02;;;;;;;0.13;0.13;;;-2.30;99.90;;;-2.63;100.00;101022.00;4944197;28;20228;-79
2021/12/21 04:01:32;;;;;;;0.30;0.30;;;;;;;-2.67;100.00;101022.56;4948635;28;20233;-77
2021/12/21 04:04:00;;;;;;;0.30;0.30;;;-2.30;99.90;;;-2.66;100.00;101024.38;4984060;28;20691;-79
2021/12/21 04:06:28;;;;;;;0.20;0.20;;;;;;;-2.70;100.00;101024.94;4934594;28;20221;-79
2021/12/21 04:08:56;;;;;;;0.20;0.20;;;-2.30;99.90;;;-2.66;100.00;101037.31;4954159;28;20216;-79
2021/12/21 04:11:24;;;;;;;0.30;0.30;;;;;;;-2.65;100.00;101042.59;4967277;28;20283;-79
2021/12/21 04:13:53;;;;;;;0.20;0.20;;;;;;;-2.64;100.00;101041.81;4949248;28;20255;-79
2021/12/21 04:16:21;;;;;;;0.30;0.30;;;;;;;-2.67;100.00;101035.50;4952095;28;20224;-79
2021/12/21 04:18:49;;;;;;;0.20;0.20;;;-2.30;99.90;;;-2.65;100.00;101040.00;4965127;28;20221;-79
2021/12/21 04:21:17;;;;;;;0.20;0.20;;;-2.30;99.90;;;-2.67;100.00;101028.63;4981454;28;20225;-79
2021/12/21 04:23:45;;;;;;;0.30;0.30;;;;;;;-2.69;100.00;101024.16;4934388;28;20209;-79
2021/12/21 04:26:17;;;;;;;0.28;0.28;;;-2.40;99.90;;;-2.66;100.00;101037.31;4949095;28;20233;-80
2021/12/21 04:28:45;;;;;;;0.20;0.20;;;;;;;-2.67;100.00;101028.63;4965477;28;20208;-79
2021/12/21 04:31:14;;;;;;;0.30;0.30;;;-2.30;99.90;;;-2.66;100.00;101024.38;4934144;28;20241;-79
2021/12/21 04:33:43;;;;;;;0.20;0.20;;;-2.30;99.90;;;-2.67;100.00;101023.47;4980172;28;20213;-78
2021/12/21 04:36:13;;;;;;;0.30;0.30;;;-2.40;99.90;;;-2.67;100.00;101033.81;4964840;28;20213;-79
2021/12/21 04:38:46;;;;;;;0.30;0.30;;;;;;;-2.69;100.00;101031.91;4935225;28;20221;-79
2021/12/21 04:41:21;;;;;;;0.30;0.30;;;-2.50;99.90;;;-2.70;100.00;101024.94;4948199;28;20233;-79
2021/12/21 04:43:52;;;;;;;0.20;0.20;;;-2.40;99.90;;;-2.73;100.00;101023.03;4979947;28;20213;-80
2021/12/21 04:46:21;;;;;;;0.20;0.20;;;;;;;-2.74;100.00;101022.91;4933164;28;20214;-79
2021/12/21 04:48:49;;;;;;;0.20;0.20;;;-2.40;99.90;;;-2.74;100.00;101028.09;4963137;28;20909;-79
2021/12/21 04:51:18;;;;;;;0.20;0.20;;;-2.40;99.90;;;-2.76;100.00;101025.41;4949928;28;20225;-79
2021/12/21 04:53:46;;;;;;;0.20;0.20;;;-2.40;99.90;;;-2.77;100.00;101022.69;4997062;28;20209;-80
2021/12/21 04:56:14;;;;;;;0.28;0.28;;;-2.40;99.90;;;-2.76;100.00;101027.09;4964408;28;20216;-79
2021/12/21 04:58:42;;;;;;;0.20;0.20;;;-2.40;99.90;;;-2.74;100.00;101033.28;4962928;28;20248;-79
2021/12/21 05:01:10;;;;;;;0.20;0.20;;;-2.40;99.90;;;-2.75;100.00;101036.66;4981755;28;20245;-79
2021/12/21 05:03:38;;;;;;;0.30;0.30;;;-2.50;99.90;;;-2.76;100.00;101027.09;4948966;28;20235;-79
2021/12/21 05:06:07;;;;;;;0.45;0.45;;;;;;;-2.76;100.00;101033.16;4938396;28;20545;-79
2021/12/21 05:08:38;;;;;;;0.20;0.20;;;-2.40;99.90;;;-2.78;100.00;101031.25;4972310;28;20208;-79
2021/12/21 05:11:08;;;;;;;0.20;0.20;;;-2.40;99.90;;;-2.77;100.00;101033.97;4954931;28;20236;-79
2021/12/21 05:13:39;;;;;;;0.60;0.60;;;-2.50;99.90;;;-2.79;100.00;101022.59;4959501;28;20236;-79
2021/12/21 05:16:07;;;;;;;0.20;0.20;;;-2.50;99.90;;;-2.81;100.00;101020.69;4943009;28;20201;-79
2021/12/21 05:18:35;;;;;;;0.20;0.20;;;-2.40;99.90;;;-2.80;100.00;101022.47;4934328;28;20209;-79
2021/12/21 05:21:04;;;;;;;0.20;0.20;;;-2.50;99.90;;;-2.86;100.00;101017.78;4935559;28;20229;-78
2021/12/21 05:23:33;;;;;;;1.65;1.65;;;-2.50;99.90;;;-2.87;100.00;101010.81;4949933;28;20714;-79
2021/12/21 05:26:01;;;;;;;0.20;0.20;;;-2.50;99.90;;;-2.86;100.00;101014.28;4934503;28;20201;-79
2021/12/21 05:28:29;;;;;;;0.20;0.20;;;-2.50;99.90;;;-2.87;100.00;101020.25;4934305;28;20575;-79
2021/12/21 05:30:57;;;;;;;0.30;0.30;;;-2.60;99.90;;;-2.89;100.00;101017.56;4934076;28;20228;-79
2021/12/21 05:33:27;;;;;;;0.30;0.30;;;-2.60;99.90;;;-2.91;100.00;101017.44;4932770;28;20684;-78
2021/12/21 05:35:56;;;;;;;0.20;0.20;;;-2.70;99.90;;;-2.95;100.00;101010.25;4978023;28;20202;-79
2021/12/21 05:38:31;;;;;;;0.25;0.25;;;-2.60;99.90;;;-2.95;100.00;101011.94;4957903;28;20225;-79
2021/12/21 05:41:05;;;;;;;0.30;0.30;;;-2.60;99.90;;;-2.96;100.00;101015.31;4963809;28;20232;-79
2021/12/21 05:43:33;;;;;;;0.30;0.30;;;-2.70;99.90;;;-2.94;100.00;101021.50;4966243;28;20219;-80
2021/12/21 05:46:01;;;;;;;0.30;0.30;;;-2.70;99.90;;;-2.92;100.00;101020.81;4965436;28;20209;-79
2021/12/21 05:48:29;;;;;;;0.20;0.20;;;-2.60;99.90;;;-2.94;100.00;101017.22;4975022;28;20217;-79
2021/12/21 05:50:57;;;;;;;0.20;0.20;;;-2.60;99.90;;;-2.95;100.00;101011.94;4950559;28;20217;-79
2021/12/21 05:53:25;;;;;;;0.20;0.20;;;;;;;-2.97;100.00;101017.00;4933695;28;20209;-78
2021/12/21 05:55:53;;;;;;;0.20;0.20;;;;;;;-2.98;100.00;101024.66;4946794;28;20221;-79
2021/12/21 05:58:22;;;;;;;0.30;0.30;;;;;;;-2.99;100.00;101021.16;4962439;28;20224;-79
2021/12/21 06:00:50;;;;;;;0.20;0.20;;;;;;;-3.00;100.00;101023.66;4951479;23;20251;-77
2021/12/21 06:03:18;;;;;;;0.30;0.30;;;-2.60;99.90;;;-3.01;100.00;101032.19;4973047;28;20220;-79
2021/12/21 06:05:46;;;;;;;0.20;0.20;;;-2.70;99.90;;;-3.05;100.00;101033.66;4954997;28;20201;-79
2021/12/21 06:08:15;;;;;;;0.30;0.30;;;-2.70;99.90;;;-3.07;100.00;101026.59;4951122;28;20217;-80
2021/12/21 06:10:45;;;;;;;0.20;0.20;;;;;;;-3.06;100.00;101034.47;4968616;28;20237;-80
2021/12/21 06:13:28;;;;;;;0.30;0.30;;;-2.70;99.90;;;-3.09;100.00;101033.34;4941804;28;20209;-80
2021/12/21 06:27:13;;;;;;;0.20;0.20;;;-2.70;99.90;;;-3.09;100.00;101047.16;4960206;28;20201;-79
2021/12/21 06:29:41;;;;;;;0.30;0.30;;;-2.80;99.90;;;-3.10;100.00;101040.19;4946538;28;20205;-81
2021/12/21 06:32:10;;;;;;;0.20;0.20;;;-2.70;99.90;;;-3.13;100.00;101046.84;4974455;28;20237;-79
2021/12/21 06:34:38;;;;;;;0.20;0.20;;;-2.80;99.90;;;-3.14;100.00;101050.22;4971032;28;20221;-79
2021/12/21 06:37:07;;;;;;;0.20;0.20;;;-2.80;99.90;;;-3.13;100.00;101050.31;4952407;28;20221;-82
2021/12/21 06:39:35;;;;;;;0.30;0.30;;;-1.50;99.90;;;-3.16;100.00;101044.94;4947872;28;20235;-81
2021/12/21 06:42:04;;;;;;;0.30;0.30;;;-2.80;99.90;;;-3.14;100.00;101048.53;4955654;28;20225;-81
2021/12/21 06:44:34;;;;;;;0.30;0.30;;;-2.80;99.90;;;-3.05;100.00;101063.81;4939993;28;20213;-81
2021/12/21 06:51:10;;;;;;;0.30;0.30;;;-2.70;99.90;;;-3.08;100.00;101054.16;4956629;28;20202;-80
2021/12/21 06:52:41;;;;;;;0.30;0.30;;;;;;;-3.11;100.00;101042.66;4961129;28;20226;-80
2021/12/21 06:55:09;;;;;;;0.30;0.30;;;;;;;-3.14;100.00;101045.03;4933328;28;20209;-81
2021/12/21 06:57:42;;;;;;;2.60;1.35;;;-2.70;99.90;;;-3.12;100.00;101048.63;4947808;28;20212;-80
2021/12/21 07:00:14;;;;;;;0.20;0.20;;;-2.80;99.90;;;-3.10;100.00;101045.38;4989582;28;20220;-80
2021/12/21 07:02:43;;;;;;;0.20;0.20;;;-2.80;99.90;;;-3.13;100.00;101044.25;4954618;28;20209;-80
2021/12/21 07:05:12;;;;;;;0.20;0.20;;;-2.80;99.90;;;-3.13;100.00;101046.84;4965219;28;20209;-79
2021/12/21 07:07:40;;;;;;;0.20;0.20;;;-2.80;99.90;;;-3.17;100.00;101056.06;4959765;29;20210;-79
2021/12/21 07:10:10;;;;;;;0.20;0.20;;;-2.80;99.90;;;-3.17;100.00;101050.88;4943408;29;20205;-80
2021/12/21 07:20:53;;;;;;;0.20;0.20;;;;;;;-3.13;100.00;101055.50;4938247;28;20240;-79
2021/12/21 07:23:20;;;;;;;0.20;0.20;;;-2.80;99.90;;;-3.19;100.00;101047.28;4943153;28;20209;-79
2021/12/21 07:25:50;;;;;;;0.20;0.20;;;-2.90;99.90;;;-3.17;100.00;101058.66;4959196;28;20209;-79
2021/12/21 07:28:19;;;;;;;0.20;0.20;;;;;;;-3.16;100.00;101063.03;4942246;28;20216;-79
2021/12/21 07:30:49;;;;;;;0.30;0.30;;;-2.80;99.90;;;-3.22;100.00;101057.41;4958699;28;20995;-79
2021/12/21 07:33:18;;;;;;;0.20;0.20;;;-2.80;99.90;;;-3.17;100.00;101060.34;4943484;28;20274;-79
2021/12/21 07:35:47;;;;;;;0.20;0.20;;;;;;;-3.16;100.00;101065.63;4943296;28;20209;-80
2021/12/21 07:38:15;;;;;;;0.20;0.20;;;-2.90;99.90;;;-3.15;100.00;101062.25;4943641;28;20213;-79
2021/12/21 07:40:43;;;;;;;0.20;0.20;;;-2.80;99.90;;;-3.16;100.00;101065.63;4975639;28;20239;-79
2021/12/21 07:43:12;;;;;;;0.20;0.20;;;;;;;-3.16;100.00;101067.31;4974766;28;20221;-78
2021/12/21 07:45:40;;;;;;;0.20;0.20;;;-2.80;99.90;;;-3.15;100.00;101069.09;4961931;28;20220;-79
2021/12/21 07:48:08;;;;;;;0.20;0.20;;;-2.80;99.90;;;-3.18;100.00;101063.72;4957372;28;20224;-79
2021/12/21 07:50:37;;;;;;;0.20;0.20;;;-2.80;99.90;;;-3.23;100.00;101059.09;4948408;29;20225;-79
2021/12/21 07:53:06;;;;;;;0.20;0.20;;;-2.80;99.90;;;-3.23;100.00;101059.09;4953281;28;20205;-79
2021/12/21 07:55:45;;;;;;;0.20;0.20;;;-2.80;99.90;;;-3.24;100.00;101070.22;4960180;28;20202;-80
2021/12/21 07:58:14;;;;;;;0.20;0.20;;;;;;;-3.16;100.00;101077.66;4951377;28;20208;-79
2021/12/21 08:00:42;;;;;;;0.20;0.20;;;;;;;-3.18;100.00;101072.38;4954683;28;20322;-79
2021/12/21 08:03:14;;;;;;;0.20;0.20;;;-2.80;99.90;;;-3.13;100.00;101080.47;4942788;28;20213;-79
2021/12/21 08:05:45;;;;;;;0.20;0.20;;;-2.80;99.90;;;-3.15;100.00;101090.69;4935903;28;20209;-78
2021/12/21 08:08:18;;;;;;;0.20;0.20;;;-2.60;99.90;;;-3.11;100.00;101097.00;4954949;28;20213;-79
2021/12/21 08:10:56;;;;;;;0.80;0.80;;;-2.70;99.90;;;-3.08;100.00;101094.63;4929545;28;20225;-79
2021/12/21 08:13:24;;;;;;;0.20;0.20;;;-2.70;99.90;;;-3.08;100.00;101102.41;4926922;28;20205;-79
2021/12/21 08:15:54;;;;;;;0.20;0.20;;;;;;;-3.04;100.00;101107.00;4940375;28;20548;-79
2021/12/21 08:18:22;;;;;;;0.20;0.20;;;-2.70;99.90;;;-3.05;100.00;101105.22;4973263;28;20665;-79
2021/12/21 08:20:51;;;;;;;0.20;0.20;;;;;;;-3.07;100.00;101106.78;4959012;28;20241;-79
2021/12/21 08:23:19;;;;;;;0.30;0.30;;;;;;;-3.03;100.00;101114.00;4970517;28;20214;-79
2021/12/21 08:25:50;;;;;;;0.20;0.20;;;-2.60;99.90;;;-2.98;100.00;101123.00;4932422;28;20205;-79
2021/12/21 08:28:24;;;;;;;0.20;0.20;;;-2.60;99.90;;;-2.93;100.00;101137.16;4944165;28;20220;-79
2021/12/21 08:30:55;;;;;;;0.20;0.20;;;;;;;-2.94;100.00;101130.19;4938492;28;20232;-79
2021/12/21 08:33:23;;;;;;;0.30;0.30;;;-2.60;99.90;;;-2.86;100.00;101135.94;4944267;28;20205;-79
2021/12/21 08:35:51;;;;;;;0.30;0.30;;;-2.50;99.90;;;-2.85;100.00;101133.44;4976601;28;20217;-79
2021/12/21 08:38:26;;;;;;;0.10;0.10;;;-2.50;99.90;;;-2.77;100.00;101141.78;4952505;28;20202;-79
2021/12/21 08:40:59;;;;;;;0.30;0.30;;;-2.40;99.90;;;-2.73;100.00;101144.69;4940215;28;20237;-78
2021/12/21 08:43:32;;;;;;;0.30;0.30;;;-2.30;99.90;;;-2.69;100.00;101153.59;4937885;28;20208;-79
2021/12/21 08:46:01;;;;;;;0.30;0.30;;;-2.20;99.90;;;-2.67;100.00;101157.19;4942593;28;20221;-79
2021/12/21 08:48:31;;;;;;;0.30;0.30;;;-2.30;99.90;;;-2.55;100.00;101171.06;4922965;28;20210;-79
2021/12/21 08:51:00;;;;;;;0.20;0.20;;;;;;;-2.47;100.00;101182.88;4943240;28;20233;-79
2021/12/21 08:53:30;;;;;;;0.13;0.13;;;-2.10;99.90;;;-2.46;100.00;101194.13;4943428;28;20225;-79
2021/12/21 08:55:59;;;;;;;0.20;0.20;;;-0.30;99.90;;;-2.36;100.00;101197.50;4970990;28;20201;-79
2021/12/21 08:58:28;;;;;;;0.20;0.20;;;-2.00;99.90;;;-2.34;100.00;101190.75;4950679;28;20210;-79
2021/12/21 09:00:56;;;;;;;0.30;0.30;;;-2.00;99.90;;;-2.27;100.00;101192.09;4939021;28;20232;-79
2021/12/21 09:03:24;;;;;;;0.20;0.20;;;;;;;-2.21;100.00;101204.59;4962503;28;20233;-79
2021/12/21 09:05:54;;;;;;;0.10;0.10;;;-1.80;99.90;;;-2.18;100.00;101205.69;4951841;28;20221;-79
2021/12/21 09:08:21;;;;;;;0.17;0.17;;;-1.80;99.90;;;-2.17;100.00;101204.00;4944776;28;20209;-79
2021/12/21 09:10:52;;;;;;;0.20;0.20;;;-1.70;99.90;;;-2.03;100.00;101221.44;4967631;28;20236;-79
2021/12/21 09:13:20;;;;;;;0.20;0.20;;;-1.70;99.90;;;-2.02;100.00;101216.38;4956977;28;20217;-79
2021/12/21 09:15:49;;;;;;;0.30;0.30;;;;;;;-1.96;100.00;101211.63;4958558;28;20205;-79
2021/12/21 09:18:17;;;;;;;0.30;0.30;;;;;;;-1.93;100.00;101213.53;4941140;28;20228;-79
2021/12/21 09:20:45;;;;;;;0.30;0.30;;;;;;;-1.89;100.00;101215.56;4940257;28;20229;-79
2021/12/21 09:23:15;;;;;;;0.20;0.20;;;-1.50;99.90;;;-1.83;100.00;101213.38;4972788;28;20213;-79
2021/12/21 09:25:45;;;;;;;0.30;0.30;;;-1.50;99.90;;;-1.84;100.00;101205.50;4954510;28;20214;-80
2021/12/21 09:28:14;;;;;;;0.20;0.20;;;-1.40;99.90;;;-1.78;100.00;101209.44;4924126;28;20209;-79
2021/12/21 09:30:42;;;;;;;0.28;0.28;;;;;;;-1.73;100.00;101218.44;4956189;28;20240;-79
2021/12/21 09:33:10;;;;;;;0.20;0.20;;;-1.30;99.90;;;-1.69;100.00;101222.13;4922233;28;20209;-79
2021/12/21 09:35:44;;;;;;;0.28;0.28;;;-1.30;99.90;;;-1.69;100.00;101212.66;4959030;28;20225;-79
2021/12/21 09:38:13;;;;;;;0.10;0.10;;;;;;;-1.61;100.00;101210.59;4957941;28;20596;-79
2021/12/21 09:40:46;;;;;;;0.20;0.20;;;-1.20;99.90;;;-1.51;100.00;101219.94;4924812;28;20233;-79
2021/12/21 09:43:14;;;;;;;0.30;0.30;;;-1.10;99.90;;;-1.50;100.00;101219.13;4965954;28;20201;-79
2021/12/21 09:45:46;;;;;;;0.20;0.20;;;;;;;-1.51;100.00;101212.16;4941594;28;20209;-80
2021/12/21 09:48:14;;;;;;;0.10;0.10;;;;;;;-1.42;100.00;101215.38;4932328;28;20205;-79
2021/12/21 09:50:42;;;;;;;0.20;0.20;;;;;;;-1.40;100.00;101206.00;4963457;28;20228;-80
2021/12/21 09:53:11;;;;;;;0.10;0.10;;;;;;;-1.30;100.00;101224.03;4955147;28;20209;-79
2021/12/21 09:55:47;;;;;;;0.10;0.10;;;-0.90;99.90;;;-1.22;100.00;101225.47;4956518;28;20213;-79
2021/12/21 09:58:15;;;;;;;0.20;0.20;;;-0.90;99.90;;;-1.15;100.00;101237.16;4927545;28;20216;-80
2021/12/21 10:00:43;;;;;;;0.10;0.10;;;;;;;-1.16;100.00;101227.56;4948558;28;20237;-80
2021/12/21 10:03:11;;;;;;;0.17;0.17;;;;;;;-1.09;100.00;101229.78;4923776;28;20240;-79
2021/12/21 10:05:42;;;;;;;0.10;0.10;;;-0.70;99.90;;;-1.11;100.00;101227.09;4979152;28;20212;-79
2021/12/21 10:08:15;;;;;;;0.10;0.10;;;-0.60;99.90;;;-1.06;100.00;101235.19;4941302;28;20247;-80
2021/12/21 10:10:50;;;;;;;0.20;0.20;;;-0.60;99.90;;;-0.94;100.00;101245.50;4951088;28;20237;-79
2021/12/21 10:13:26;;;;;;;0.10;0.10;;;-0.50;99.90;;;-0.85;100.00;101260.00;4948288;28;20197;-81
2021/12/21 10:16:05;;;;;;;0.20;0.20;;;-0.50;99.90;;;-0.82;100.00;101247.22;4972356;28;20224;-80
2021/12/21 10:18:39;;;;;;;0.10;0.10;;;;;;;-0.74;100.00;101247.75;4949258;28;20232;-80
2021/12/21 10:21:11;;;;;;;0.13;0.13;;;-0.40;99.90;;;-0.69;100.00;101249.84;4939116;28;20228;-80
2021/12/21 10:23:47;;;;;;;0.90;0.90;;;-0.30;99.90;;;-0.76;100.00;101232.06;4948874;28;20220;-79
2021/12/21 10:26:29;;;;;;;0.20;0.20;;;-0.30;99.90;;;-0.56;100.00;101248.97;4954494;28;20197;-79
2021/12/21 10:29:07;;;;;;;0.20;0.20;;;-0.30;99.90;;;-0.59;100.00;101230.56;4960660;28;20206;-80
2021/12/21 10:31:40;;;;;;;0.20;0.20;;;-0.20;99.90;;;-0.59;100.00;101233.16;4948232;28;20221;-79
2021/12/21 10:34:18;;;;;;;0.20;0.20;;;-0.20;99.90;;;-0.49;100.00;101239.88;4945250;28;20197;-79
2021/12/21 10:36:51;;;;;;;0.93;0.93;;;-0.20;99.90;;;-0.50;100.00;101232.88;4953509;28;20217;-79
2021/12/21 10:39:28;;;;;;;0.80;0.80;;;-0.10;99.90;;;-0.44;100.00;101234.19;4935117;28;20201;-77
2021/12/21 10:42:04;;;;;;;0.20;0.20;;;0.00;99.90;;;-0.34;100.00;101238.28;4949682;28;20228;-78
2021/12/21 10:44:32;;;;;;;0.10;0.10;;;;;;;-0.25;100.00;101241.47;4972940;28;20216;-78
2021/12/21 10:47:00;;;;;;;0.10;0.10;;;0.10;99.90;;;-0.22;100.00;101240.75;4964143;28;20218;-78
2021/12/21 10:49:34;;;;;;;0.20;0.20;;;0.20;99.90;;;-0.18;100.00;101229.75;4934033;28;20213;-78
2021/12/21 10:52:10;;;;;;;0.20;0.20;;;0.30;99.90;;;-0.14;100.00;101234.34;4943699;28;20225;-79
2021/12/21 10:54:47;;;;;;;0.20;0.20;;;0.30;99.90;;;-0.07;100.00;101237.44;4949140;28;20581;-79
2021/12/21 10:57:32;;;;;;;0.10;0.10;;;0.40;99.90;;;0.08;100.00;101241.88;4972279;28;20199;-78
2021/12/21 11:00:13;;;;;;;0.10;0.10;;;0.40;99.90;;;0.11;100.00;101239.47;4948081;28;20201;-78
2021/12/21 11:02:44;;;;;;;0.30;0.30;;;;;;;0.21;100.00;101237.53;4957360;28;20231;-78
2021/12/21 11:05:16;;;;;;;0.20;0.20;;;0.50;99.90;;;0.28;100.00;101237.13;4948228;28;20276;-79
2021/12/21 11:07:49;;;;;;;0.20;0.20;;;0.60;99.90;;;0.39;100.00;101242.09;4943757;28;20213;-79
2021/12/21 11:10:30;;;;;;;0.10;0.10;;;0.70;99.90;;;0.45;100.00;101235.56;4954337;28;20205;-79
2021/12/21 11:13:09;;;;;;;0.20;0.20;;;;;;;0.51;100.00;101222.94;4949103;28;20217;-78
2021/12/21 11:15:53;;;;;;;0.10;0.10;;;0.90;99.90;;;0.56;100.00;101213.69;4932398;28;20209;-78
2021/12/21 11:18:25;;;;;;;0.10;0.10;;;0.90;99.90;;;0.63;100.00;101215.88;4968817;28;20206;-79
2021/12/21 11:20:56;;;;;;;0.10;0.10;;;1.00;99.90;;;0.62;100.00;101206.25;4942918;28;20244;-79
2021/12/21 11:23:26;;;;;;;0.10;0.10;;;1.10;99.90;;;0.78;100.00;101217.59;4937490;28;20236;-79
2021/12/21 11:25:56;;;;;;;0.20;0.20;;;1.10;99.90;;;0.75;100.00;101205.31;4943957;28;20213;-80
2021/12/21 11:28:35;;;;;;;0.28;0.28;;;1.20;99.90;;;0.81;100.00;101213.47;4944965;28;20294;-79
2021/12/21 11:31:08;;;;;;;0.20;0.20;;;1.20;99.90;;;0.90;100.00;101213.13;4955732;28;20500;-78
2021/12/21 11:33:44;;;;;;;0.20;0.20;;;1.20;99.90;;;1.01;100.00;101211.16;4937953;28;20228;-78
2021/12/21 11:39:04;;;;;;;0.10;0.10;;;1.50;99.90;;;1.17;100.00;101211.28;4944392;28;20217;-79
2021/12/21 11:41:35;;;;;;;0.10;0.10;;;1.60;99.90;;;1.25;100.00;101210.91;4938372;28;20240;-79
2021/12/21 11:44:29;;;;;;;0.20;0.20;;;1.60;99.90;;;1.35;100.00;101214.97;4956625;28;20229;-78
2021/12/21 11:47:02;;;;;;;0.10;0.10;;;1.70;99.90;;;1.39;100.00;101195.22;4954101;28;20216;-77
2021/12/21 11:49:52;;;;;;;0.28;0.28;;;1.70;99.90;;;1.43;100.00;101202.38;4947980;28;20225;-78
2021/12/21 11:52:27;;;;;;;0.10;0.10;;;1.80;99.90;;;1.56;100.00;101197.97;4933410;28;20221;-79